Time;durP1;ratioP1;P1;durP2;ratioP2;P2;SDS_P1;SDS_P2;PMS_P1;PMS_P2;Temp;Humidity;BMP_temperature;BMP_pressure;BME280_temperature;BME280_humidity;BME280_pressure;Samples;Min_cycle;Max_cycle;Signal;HPM_P1;HPM_P2
2023/03/19 00:02:17;;;;;;;0.57;0.40;;;;;;;10.29;100.00;100986.19;5043080;28;20025;-65
2023/03/19 00:04:43;;;;;;;0.50;0.50;;;;;;;10.27;100.00;100984.72;5045317;28;20032;-65
2023/03/19 00:07:09;;;;;;;0.52;0.52;;;;;;;10.24;100.00;100983.28;5047517;28;20309;-67
2023/03/19 00:09:35;;;;;;;0.63;0.63;;;;;;;10.25;100.00;100984.97;5046443;28;20052;-61
2023/03/19 00:12:00;;;;;;;0.65;0.65;;;;;;;10.23;100.00;100987.03;5047946;28;20064;-66
2023/03/19 00:14:25;;;;;;;0.60;0.60;;;;;;;10.21;100.00;100985.59;5045752;28;20369;-67
2023/03/19 00:16:51;;;;;;;0.52;0.52;;;;;;;10.19;100.00;100983.09;5047262;28;20037;-63
2023/03/19 00:19:16;;;;;;;0.52;0.52;;;;;;;10.19;100.00;100984.97;5046978;28;20446;-67
2023/03/19 00:21:41;;;;;;;0.73;0.73;;;;;;;10.18;100.00;100991.53;5045992;28;20033;-64
2023/03/19 00:24:08;;;;;;;0.68;0.68;;;;;;;10.16;100.00;100988.16;5047110;28;20017;-65
2023/03/19 00:26:35;;;;;;;0.60;0.60;;;;;;;10.12;100.00;100990.50;5048391;28;20514;-62
2023/03/19 00:29:01;;;;;;;0.60;0.60;;;;;;;10.12;100.00;100994.09;5047295;28;20145;-67
2023/03/19 00:31:28;;;;;;;0.60;0.60;;;;;;;10.09;100.00;100996.47;5046278;28;20519;-64
2023/03/19 00:33:56;;;;;;;0.65;0.50;;;;;;;10.10;100.00;100992.66;5045502;28;20058;-63
2023/03/19 00:36:22;;;;;;;0.60;0.60;;;;;;;10.09;100.00;100997.31;5049604;28;20029;-59
2023/03/19 00:38:47;;;;;;;0.63;0.63;;;;;;;10.09;100.00;100996.47;5039443;28;20076;-63
2023/03/19 00:41:13;;;;;;;0.40;0.40;;;;;;;10.07;100.00;100999.41;5049206;28;20060;-64
2023/03/19 00:43:39;;;;;;;0.52;0.52;;;;;;;10.08;100.00;101003.00;5042748;28;20029;-58
2023/03/19 00:46:04;;;;;;;0.80;0.68;;;;;;;10.05;100.00;100992.50;5044333;28;20099;-60
2023/03/19 00:48:30;;;;;;;0.52;0.52;;;;;;;10.06;100.00;101000.50;5047962;28;20037;-68
2023/03/19 00:51:01;;;;;;;0.60;0.60;;;;;;;10.09;100.00;100999.22;5048555;28;20103;-67
2023/03/19 00:53:27;;;;;;;0.60;0.60;;;;;;;10.09;100.00;100993.72;5049452;28;20487;-66
2023/03/19 00:55:52;;;;;;;0.45;0.43;;;;;;;10.11;100.00;100994.34;5045779;28;20025;-67
2023/03/19 00:58:17;;;;;;;0.55;0.55;;;;;;;10.07;100.00;100996.69;5037036;28;20029;-68
2023/03/19 01:00:42;;;;;;;0.60;0.60;;;;;;;10.10;100.00;100995.41;5046997;28;20025;-68
2023/03/19 01:03:08;;;;;;;0.63;0.63;;;;;;;10.10;100.00;100993.50;5048870;28;20025;-68
2023/03/19 01:05:34;;;;;;;0.52;0.52;;;;;;;10.10;100.00;101003.63;5048401;28;20017;-66
2023/03/19 01:08:01;;;;;;;0.73;0.60;;;;;;;10.11;100.00;100994.34;5049126;28;20036;-67
2023/03/19 01:10:26;;;;;;;0.50;0.50;;;;;;;10.08;100.00;101003.00;5048550;28;20551;-67
2023/03/19 01:12:52;;;;;;;0.70;0.70;;;;;;;10.06;100.00;100994.16;5047046;28;20021;-67
2023/03/19 01:15:18;;;;;;;0.70;0.70;;;;;;;10.07;100.00;100999.41;5047819;28;20044;-61
2023/03/19 01:17:43;;;;;;;0.50;0.50;;;;;;;10.08;100.00;101001.09;5047882;28;20021;-67
2023/03/19 01:20:17;;;;;;;0.60;0.60;;;;;;;10.04;100.00;101001.78;5046756;28;22313;-65
2023/03/19 01:22:42;;;;;;;0.70;0.70;;;;;;;10.04;100.00;100990.81;5047333;28;20483;-66
2023/03/19 01:25:11;;;;;;;0.60;0.60;;;;;;;10.01;100.00;100994.00;5048109;28;20027;-69
2023/03/19 01:27:36;;;;;;;0.70;0.70;;;;;;;10.01;100.00;100988.50;5044266;28;20769;-64
2023/03/19 01:30:02;;;;;;;0.70;0.70;;;;;;;10.04;100.00;100993.56;5048258;28;20025;-65
2023/03/19 01:32:27;;;;;;;0.50;0.50;;;;;;;10.05;100.00;100995.22;5048209;28;20558;-67
2023/03/19 01:34:52;;;;;;;0.55;0.55;;;;;;;10.05;100.00;100987.00;5047089;28;20452;-63
2023/03/19 01:37:19;;;;;;;0.60;0.60;;;;;;;10.04;100.00;100990.81;5046434;28;20025;-65
2023/03/19 01:39:44;;;;;;;0.65;0.65;;;;;;;10.05;100.00;100993.31;5038885;28;20029;-66
2023/03/19 01:42:10;;;;;;;0.60;0.60;;;;;;;10.04;100.00;100993.56;5046272;28;20033;-63
2023/03/19 01:44:37;;;;;;;0.70;0.70;;;;;;;10.03;100.00;100998.19;5043303;28;20033;-65
2023/03/19 01:47:15;;;;;;;0.60;0.60;;;;;;;10.04;100.00;100997.16;5040548;28;20041;-65
2023/03/19 01:49:41;;;;;;;0.50;0.50;;;;;;;10.03;100.00;100992.69;5037129;28;20033;-65
2023/03/19 01:52:07;;;;;;;0.60;0.60;;;;;;;10.04;100.00;100988.06;5046595;28;20356;-64
2023/03/19 01:54:35;;;;;;;0.60;0.60;;;;;;;10.03;100.00;100995.44;5046198;28;20119;-68
2023/03/19 01:57:08;;;;;;;0.60;0.60;;;;;;;10.04;100.00;100993.56;5047419;28;20106;-66
2023/03/19 01:59:38;;;;;;;0.60;0.60;;;;;;;10.08;100.00;100992.03;5037009;28;20310;-67
2023/03/19 02:02:10;;;;;;;0.50;0.50;;;;;;;10.08;100.00;100992.88;5046199;28;20074;-67
2023/03/19 02:04:39;;;;;;;0.70;0.70;;;;;;;10.05;100.00;100992.50;5039143;28;20025;-64
2023/03/19 02:07:05;;;;;;;;;;;;;;;10.14;100.00;100993.91;5037337;28;20032;-59
2023/03/19 02:09:30;;;;;;;0.60;0.60;;;;;;;10.07;100.00;100993.94;5046158;28;19966;-66
2023/03/19 02:11:58;;;;;;;0.60;0.60;;;;;;;10.07;100.00;100991.19;5041648;28;20033;-66
2023/03/19 02:14:23;;;;;;;0.65;0.60;;;;;;;10.06;100.00;100985.94;5036120;28;20025;-65
2023/03/19 02:16:48;;;;;;;0.60;0.60;;;;;;;10.08;100.00;100992.03;5030156;28;20074;-66
2023/03/19 02:19:27;;;;;;;0.70;0.70;;;;;;;10.10;100.00;100995.41;5046309;28;20056;-64
2023/03/19 02:21:52;;;;;;;;;;;;;;;10.14;100.00;100991.16;5037518;28;20036;-68
2023/03/19 02:24:36;;;;;;;0.70;0.70;;;;;;;10.09;100.00;100988.25;5046021;28;19927;-64
2023/03/19 02:27:02;;;;;;;0.70;0.70;;;;;;;10.07;100.00;100991.19;5045286;28;20032;-63
2023/03/19 02:29:27;;;;;;;0.73;0.73;;;;;;;10.05;100.00;100996.06;5037974;28;20452;-65
2023/03/19 02:31:53;;;;;;;0.70;0.70;;;;;;;10.04;100.00;100997.16;5044937;28;21141;-65
2023/03/19 02:34:18;;;;;;;0.80;0.80;;;;;;;10.01;100.00;100994.00;5045807;28;20029;-68
2023/03/19 02:36:50;;;;;;;0.70;0.70;;;;;;;9.99;100.00;100996.97;5037871;28;20337;-68
2023/03/19 02:39:32;;;;;;;0.80;0.80;;;;;;;9.99;100.00;100996.97;5044552;28;20040;-63
2023/03/19 02:41:59;;;;;;;0.75;0.75;;;;;;;9.96;100.00;101002.91;5046710;28;20032;-68
2023/03/19 02:44:25;;;;;;;0.80;0.80;;;;;;;9.96;100.00;101002.91;5046268;28;20375;-67
2023/03/19 02:46:50;;;;;;;0.80;0.80;;;;;;;9.96;100.00;100999.31;5044417;28;20040;-61
2023/03/19 02:49:16;;;;;;;0.85;0.80;;;;;;;9.96;100.00;101004.81;5039872;28;20058;-65
2023/03/19 02:51:41;;;;;;;0.77;0.77;;;;;;;9.96;100.00;101010.28;5045858;28;20503;-65
2023/03/19 02:54:07;;;;;;;0.70;0.70;;;;;;;9.97;100.00;101003.72;5042750;28;20061;-67
2023/03/19 02:56:32;;;;;;;0.70;0.70;;;;;;;9.94;100.00;101006.94;5041931;28;20364;-66
2023/03/19 02:58:57;;;;;;;0.80;0.70;;;;;;;9.93;100.00;101006.06;5042425;28;20083;-67
2023/03/19 03:01:23;;;;;;;0.80;0.80;;;;;;;9.95;100.00;101003.97;5040506;28;20040;-67
2023/03/19 03:03:49;;;;;;;0.90;0.90;;;;;;;9.96;100.00;101008.38;5044180;28;20017;-67
2023/03/19 03:06:14;;;;;;;1.15;0.80;;;;;;;9.97;100.00;101014.69;5045148;28;20040;-67
2023/03/19 03:08:40;;;;;;;0.90;0.90;;;;;;;9.96;100.00;101013.03;5045512;28;20009;-63
2023/03/19 03:11:06;;;;;;;0.93;0.93;;;;;;;9.95;100.00;101014.94;5042552;28;20029;-59
2023/03/19 03:13:31;;;;;;;1.00;1.00;;;;;;;9.97;100.00;101006.47;5039488;28;20033;-64
2023/03/19 03:15:57;;;;;;;0.80;0.80;;;;;;;9.97;100.00;101006.47;5045218;28;20433;-65
2023/03/19 03:18:23;;;;;;;1.00;1.00;;;;;;;9.98;100.00;101008.16;5046241;28;20532;-62
2023/03/19 03:20:48;;;;;;;0.93;0.93;;;;;;;9.96;100.00;101010.28;5045360;28;20127;-65
2023/03/19 03:23:14;;;;;;;1.00;1.00;;;;;;;9.94;100.00;101002.28;5046000;28;20108;-67
2023/03/19 03:25:40;;;;;;;0.90;0.90;;;;;;;9.93;100.00;101010.72;5043917;28;20106;-66
2023/03/19 03:28:05;;;;;;;1.10;1.00;;;;;;;9.92;100.00;101017.28;5040154;28;20029;-67
2023/03/19 03:30:31;;;;;;;0.80;0.80;;;;;;;9.91;100.00;101010.94;5038945;28;20468;-67
2023/03/19 03:32:57;;;;;;;0.90;0.90;;;;;;;9.90;100.00;101013.94;5044008;28;20025;-67
2023/03/19 03:35:22;;;;;;;0.90;0.90;;;;;;;9.86;100.00;101016.25;5045745;28;20021;-67
2023/03/19 03:37:49;;;;;;;0.88;0.82;;;;;;;9.82;100.00;101015.03;5043208;28;20060;-66
2023/03/19 03:40:14;;;;;;;0.90;0.90;;;;;;;9.77;100.00;101010.19;5049697;28;20100;-68
2023/03/19 03:42:40;;;;;;;0.80;0.80;;;;;;;9.74;100.00;101010.66;5047473;28;20132;-67
2023/03/19 03:45:08;;;;;;;1.00;1.00;;;;;;;9.71;100.00;101013.84;5050720;28;20027;-67
2023/03/19 03:47:33;;;;;;;0.93;0.93;;;;;;;9.64;100.00;101013.03;5037187;28;20045;-68
2023/03/19 03:49:59;;;;;;;1.00;1.00;;;;;;;9.61;100.00;101014.31;5050274;28;20557;-67
2023/03/19 03:52:24;;;;;;;0.95;0.95;;;;;;;9.52;100.00;101014.78;5048782;28;20411;-65
2023/03/19 03:54:49;;;;;;;0.90;0.90;;;;;;;9.46;100.00;101022.00;5041763;28;20107;-64
2023/03/19 03:57:15;;;;;;;1.05;1.00;;;;;;;9.40;100.00;101016.56;5047392;28;20033;-65
2023/03/19 03:59:40;;;;;;;1.00;1.00;;;;;;;9.35;100.00;101025.44;5048144;28;20333;-67
2023/03/19 04:02:06;;;;;;;0.98;0.98;;;;;;;9.29;100.00;101026.31;5043918;28;20579;-67
2023/03/19 04:04:32;;;;;;;1.10;1.10;;;;;;;9.23;100.00;101025.28;5046805;28;20029;-57
2023/03/19 04:06:58;;;;;;;0.95;0.95;;;;;;;9.18;100.00;101033.31;5049467;28;20414;-67
2023/03/19 04:09:23;;;;;;;0.90;0.90;;;;;;;9.13;100.00;101033.13;5046362;28;20025;-64
2023/03/19 04:11:48;;;;;;;1.00;1.00;;;;;;;9.09;100.00;101029.97;5048779;28;20117;-66
2023/03/19 04:14:14;;;;;;;1.02;1.02;;;;;;;9.05;100.00;101028.72;5047791;28;20068;-70
2023/03/19 04:16:39;;;;;;;1.23;1.13;;;;;;;9.02;100.00;101018.19;5044483;28;20043;-70
2023/03/19 04:19:06;;;;;;;1.15;1.15;;;;;;;8.98;100.00;101029.81;5040605;28;20027;-62
2023/03/19 04:21:32;;;;;;;1.40;1.30;;;;;;;8.95;100.00;101024.75;5046908;28;20418;-66
2023/03/19 04:23:57;;;;;;;1.17;1.10;;;;;;;8.91;100.00;101031.72;5040930;28;20029;-62
2023/03/19 04:26:23;;;;;;;1.20;1.10;;;;;;;8.89;100.00;101033.84;5046287;28;20025;-68
2023/03/19 04:28:48;;;;;;;1.15;1.08;;;;;;;8.82;100.00;101033.88;5046944;28;20518;-67
2023/03/19 04:31:14;;;;;;;1.13;1.10;;;;;;;8.76;100.00;101035.53;5040869;28;20033;-69
2023/03/19 04:33:40;;;;;;;1.20;1.10;;;;;;;8.71;100.00;101040.81;5046775;28;20064;-71
2023/03/19 04:36:06;;;;;;;0.95;0.95;;;;;;;8.65;100.00;101040.84;5041008;28;20048;-70
2023/03/19 04:38:31;;;;;;;1.10;1.10;;;;;;;8.63;100.00;101037.47;5048369;28;20431;-58
2023/03/19 04:40:57;;;;;;;1.00;1.00;;;;;;;8.60;100.00;101037.88;5040380;28;20103;-64
2023/03/19 04:43:23;;;;;;;1.30;1.20;;;;;;;8.55;100.00;101039.38;5039154;28;20021;-67
2023/03/19 04:45:49;;;;;;;1.00;1.00;;;;;;;8.48;100.00;101040.44;5046974;28;20025;-67
2023/03/19 04:48:15;;;;;;;1.30;1.20;;;;;;;8.44;100.00;101039.19;5048002;28;20120;-68
2023/03/19 04:50:41;;;;;;;1.10;1.00;;;;;;;8.41;100.00;101034.97;5045368;28;20029;-63
2023/03/19 04:53:06;;;;;;;1.08;1.08;;;;;;;8.33;100.00;101032.41;5048477;28;20415;-67
2023/03/19 04:55:33;;;;;;;1.38;1.30;;;;;;;8.31;100.00;101034.50;5048272;28;20029;-66
2023/03/19 04:57:58;;;;;;;1.00;1.00;;;;;;;8.23;100.00;101037.47;5046196;28;20479;-64
2023/03/19 05:00:23;;;;;;;1.17;1.15;;;;;;;8.22;100.00;101053.06;5048260;28;20051;-63
2023/03/19 05:02:49;;;;;;;1.05;1.00;;;;;;;8.19;100.00;101045.25;5039862;28;20025;-64
2023/03/19 05:05:14;;;;;;;1.05;1.05;;;;;;;8.10;100.00;101054.72;5049191;28;20025;-67
2023/03/19 05:07:41;;;;;;;1.25;1.20;;;;;;;8.13;100.00;101053.47;5047452;28;20100;-68
2023/03/19 05:10:08;;;;;;;1.00;1.00;;;;;;;8.08;100.00;101056.84;5038973;28;20149;-67
2023/03/19 05:12:33;;;;;;;1.30;1.20;;;;;;;8.05;100.00;101062.69;5037051;28;20074;-68
2023/03/19 05:14:58;;;;;;;1.23;1.17;;;;;;;8.01;100.00;101066.94;5046497;28;20102;-60
2023/03/19 05:17:24;;;;;;;1.17;1.17;;;;;;;7.97;100.00;101066.50;5046907;28;20021;-67
2023/03/19 05:19:50;;;;;;;1.10;1.10;;;;;;;7.95;100.00;101065.00;5047410;28;20435;-68
2023/03/19 05:22:16;;;;;;;1.25;1.15;;;;;;;7.93;100.00;101065.22;5046162;28;20107;-64
2023/03/19 05:24:41;;;;;;;0.93;0.93;;;;;;;7.79;100.00;101069.81;5048093;28;20460;-67
2023/03/19 05:27:06;;;;;;;1.35;1.20;;;;;;;7.83;100.00;101072.16;5037921;28;20431;-66
2023/03/19 05:29:31;;;;;;;1.00;0.90;;;;;;;7.85;100.00;101080.97;5047364;28;20025;-64
2023/03/19 05:31:57;;;;;;;1.40;1.30;;;;;;;7.76;100.00;101075.72;5040089;28;20104;-63
2023/03/19 05:34:22;;;;;;;1.02;1.02;;;;;;;7.76;100.00;101078.47;5039153;28;20067;-66
2023/03/19 05:36:47;;;;;;;1.13;1.02;;;;;;;7.74;100.00;101077.78;5046589;28;20066;-68
2023/03/19 05:39:13;;;;;;;1.30;1.20;;;;;;;7.72;100.00;101079.91;5031986;28;20056;-68
2023/03/19 05:41:38;;;;;;;1.25;1.10;;;;;;;7.75;100.00;101090.41;5047548;28;20032;-63
2023/03/19 05:44:03;;;;;;;1.08;1.08;;;;;;;7.67;100.00;101089.78;5045737;28;20032;-68
2023/03/19 05:46:29;;;;;;;1.23;1.20;;;;;;;7.63;100.00;101092.06;5043045;28;20024;-68
2023/03/19 05:48:54;;;;;;;1.20;1.20;;;;;;;7.63;100.00;101088.50;5034754;28;20025;-67
2023/03/19 05:51:19;;;;;;;1.27;1.20;;;;;;;7.59;100.00;101089.94;5046658;28;20120;-63
2023/03/19 05:53:45;;;;;;;1.17;1.17;;;;;;;7.57;100.00;101092.06;5047030;28;20090;-65
2023/03/19 05:56:11;;;;;;;1.45;1.30;;;;;;;7.52;100.00;101096.25;5044424;28;20028;-68
2023/03/19 05:58:36;;;;;;;1.40;1.30;;;;;;;7.57;100.00;101112.03;5037631;28;20025;-60
2023/03/19 06:01:02;;;;;;;1.60;1.30;;;;;;;7.60;100.00;101102.56;5047050;28;20033;-62
2023/03/19 06:03:27;;;;;;;1.38;1.27;;;;;;;7.63;100.00;101102.16;5038133;28;20056;-68
2023/03/19 06:05:53;;;;;;;1.10;1.10;;;;;;;7.59;100.00;101095.41;5045904;28;20906;-63
2023/03/19 06:08:19;;;;;;;1.42;1.33;;;;;;;7.60;100.00;101102.56;5046073;28;20041;-68
2023/03/19 06:10:44;;;;;;;1.30;1.20;;;;;;;7.61;100.00;101096.91;5046426;28;20025;-69
2023/03/19 06:13:10;;;;;;;1.20;1.20;;;;;;;7.61;100.00;101110.59;5037001;28;20091;-65
2023/03/19 06:15:36;;;;;;;1.10;1.10;;;;;;;7.61;100.00;101116.06;5042565;28;20032;-68
2023/03/19 06:18:01;;;;;;;1.17;1.17;;;;;;;7.56;100.00;101118.56;5039152;28;20033;-62
2023/03/19 06:20:26;;;;;;;1.38;1.20;;;;;;;7.51;100.00;101116.44;5046864;28;20167;-59
2023/03/19 06:22:52;;;;;;;1.17;1.10;;;;;;;7.49;100.00;101117.66;5046118;28;20037;-67
2023/03/19 06:25:17;;;;;;;1.50;1.40;;;;;;;7.59;100.00;101126.31;5046557;28;20039;-66
2023/03/19 06:27:43;;;;;;;1.30;1.27;;;;;;;7.70;100.00;101128.47;5037199;28;20033;-68
2023/03/19 06:30:08;;;;;;;1.50;1.40;;;;;;;7.77;100.00;101132.09;5043438;28;20025;-68
2023/03/19 06:32:34;;;;;;;1.50;1.40;;;;;;;7.80;100.00;101131.66;5045149;28;20730;-68
2023/03/19 06:34:59;;;;;;;1.58;1.48;;;;;;;7.86;100.00;101134.66;5046566;28;20032;-68
2023/03/19 06:37:25;;;;;;;1.65;1.55;;;;;;;7.92;100.00;101136.56;5037809;28;20493;-68
2023/03/19 06:39:53;;;;;;;2.00;1.50;;;;;;;7.98;100.00;101149.38;5045689;28;20044;-67
2023/03/19 06:42:18;;;;;;;1.27;1.27;;;;;;;7.95;100.00;101136.97;5040685;28;20033;-67
2023/03/19 06:44:44;;;;;;;1.55;1.40;;;;;;;7.99;100.00;101140.13;5044607;28;20036;-68
2023/03/19 06:47:09;;;;;;;1.58;1.48;;;;;;;8.01;100.00;101138.06;5038906;28;20033;-66
2023/03/19 06:49:35;;;;;;;1.60;1.50;;;;;;;8.02;100.00;101140.56;5037404;28;20071;-67
2023/03/19 06:52:00;;;;;;;1.60;1.50;;;;;;;8.05;100.00;101151.06;5046633;28;20029;-66
2023/03/19 06:54:26;;;;;;;1.88;1.65;;;;;;;8.07;100.00;101153.63;5046036;28;20379;-67
2023/03/19 06:56:51;;;;;;;1.60;1.50;;;;;;;8.09;100.00;101154.25;5041848;28;20373;-64
2023/03/19 06:59:16;;;;;;;1.50;1.40;;;;;;;8.16;100.00;101163.34;5034568;28;20471;-68
2023/03/19 07:01:42;;;;;;;1.40;1.30;;;;;;;8.20;100.00;101158.28;5043501;28;20033;-59
2023/03/19 07:04:08;;;;;;;1.48;1.38;;;;;;;8.23;100.00;101157.88;5043405;28;20027;-68
2023/03/19 07:06:33;;;;;;;3.53;1.50;;;;;;;8.27;100.00;101161.88;5042592;28;20078;-67
2023/03/19 07:08:59;;;;;;;1.70;1.60;;;;;;;8.38;100.00;101163.19;5046062;28;20029;-67
2023/03/19 07:11:24;;;;;;;1.73;1.63;;;;;;;8.55;100.00;101169.94;5037702;28;20067;-61
2023/03/19 07:13:50;;;;;;;1.48;1.33;;;;;;;8.60;100.00;101163.84;5035805;28;20494;-67
2023/03/19 07:16:15;;;;;;;1.45;1.35;;;;;;;8.71;100.00;101174.97;5046129;28;20478;-65
2023/03/19 07:18:40;;;;;;;1.75;1.65;;;;;;;8.84;100.00;101171.41;5045105;28;20037;-66
2023/03/19 07:21:05;;;;;;;1.52;1.42;;;;;;;8.99;100.00;101174.78;5037321;28;20013;-62
2023/03/19 07:23:31;;;;;;;1.60;1.50;;;;;;;9.14;100.00;101182.78;5044673;28;20029;-67
2023/03/19 07:25:57;;;;;;;1.50;1.40;;;;;;;9.25;100.00;101176.63;5045896;28;20021;-68
2023/03/19 07:28:22;;;;;;;1.48;1.20;;;;;;;9.40;100.00;101181.03;5044434;28;20021;-68
2023/03/19 07:30:51;;;;;;;1.42;1.30;;;;;;;9.57;100.00;101185.81;5041066;28;20079;-63
2023/03/19 07:33:16;;;;;;;1.50;1.30;;;;;;;9.82;100.00;101188.69;5044413;28;20017;-69
2023/03/19 07:35:41;;;;;;;1.30;1.30;;;;;;;10.07;100.00;101183.28;5045684;28;20642;-67
2023/03/19 07:38:06;;;;;;;1.40;1.30;;;;;;;10.45;100.00;101192.63;5045229;28;20049;-69
2023/03/19 07:40:32;;;;;;;1.30;1.20;;;;;;;10.76;100.00;101195.34;5046013;28;20360;-60
2023/03/19 07:42:57;;;;;;;1.15;1.10;;;;;;;10.84;100.00;101196.94;5045329;28;20028;-68
2023/03/19 07:45:22;;;;;;;1.30;1.20;;;;;;;11.02;100.00;101188.78;5046769;28;20061;-66
2023/03/19 07:47:51;;;;;;;1.27;1.17;;;;;;;11.38;100.00;101199.00;5046725;28;20112;-68
2023/03/19 07:50:16;;;;;;;1.30;1.20;;;;;;;11.58;100.00;101201.53;5046097;28;20333;-60
2023/03/19 07:52:47;;;;;;;1.58;1.20;;;;;;;11.68;100.00;101198.25;5044740;28;20025;-64
2023/03/19 07:55:13;;;;;;;1.55;1.10;;;;;;;11.82;100.00;101202.56;5046176;28;20406;-65
2023/03/19 07:57:39;;;;;;;1.50;1.20;;;;;;;11.86;100.00;101198.28;5041612;28;20021;-68
2023/03/19 08:00:05;;;;;;;1.30;1.00;;;;;;;11.88;100.00;101207.13;5045399;28;20032;-66
2023/03/19 08:02:30;;;;;;;1.20;1.10;;;;;;;12.12;100.00;101191.59;5037398;28;20099;-64
2023/03/19 08:04:55;;;;;;;1.38;1.10;;;;;;;12.16;100.00;101200.19;5045586;28;20029;-65
2023/03/19 08:07:21;;;;;;;1.15;1.00;;;;;;;12.07;100.00;101202.47;5046283;28;20029;-66
2023/03/19 08:09:46;;;;;;;1.10;0.93;;;;;;;11.99;100.00;101207.44;5045343;28;20025;-60
2023/03/19 08:12:12;;;;;;;1.25;1.00;;;;;;;11.85;100.00;101213.09;5044769;28;20025;-67
2023/03/19 08:14:38;;;;;;;1.13;0.95;;;;;;;11.69;100.00;101214.50;5044784;28;20403;-67
2023/03/19 08:17:03;;;;;;;1.35;1.02;;;;;;;11.54;100.00;101218.72;5045844;28;20075;-63
2023/03/19 08:19:29;;;;;;;1.15;1.05;;;;;;;11.44;100.00;101220.06;5045857;28;20032;-68
2023/03/19 08:21:54;;;;;;;1.38;1.10;;;;;;;11.48;100.00;101217.72;5044770;28;20025;-63
2023/03/19 08:24:20;;;;;;;1.23;1.13;;;;;;;11.56;100.00;101220.19;5042620;28;20037;-69
2023/03/19 08:26:45;;;;;;;1.30;1.20;;;;;;;11.77;100.00;101223.56;5047510;28;20480;-67
2023/03/19 08:29:11;;;;;;;1.20;1.10;;;;;;;12.06;100.00;101225.53;5047055;28;20032;-67
2023/03/19 08:31:37;;;;;;;1.55;1.00;;;;;;;11.99;99.96;101227.53;5047496;28;20025;-60
2023/03/19 08:34:03;;;;;;;1.10;1.00;;;;;;;11.92;100.00;101232.28;5047807;28;20029;-67
2023/03/19 08:36:29;;;;;;;1.52;1.10;;;;;;;11.91;100.00;101234.22;5042174;28;20112;-64
2023/03/19 08:38:55;;;;;;;1.00;1.00;;;;;;;11.97;100.00;101226.09;5047439;28;20052;-65
2023/03/19 08:41:21;;;;;;;1.20;1.10;;;;;;;12.35;100.00;101234.06;5039610;28;20040;-68
2023/03/19 08:43:47;;;;;;;1.25;1.10;;;;;;;12.98;96.58;101230.78;5045229;28;20037;-65
2023/03/19 08:46:12;;;;;;;1.45;1.20;;;;;;;13.21;93.91;101232.72;5046541;28;20024;-67
2023/03/19 08:48:37;;;;;;;1.45;1.10;;;;;;;13.26;93.17;101235.63;5047902;28;20021;-67
2023/03/19 08:51:03;;;;;;;1.20;1.10;;;;;;;13.77;92.38;101243.16;5048953;28;20071;-61
2023/03/19 08:53:29;;;;;;;1.80;1.10;;;;;;;14.09;88.07;101241.88;5048531;28;20124;-68
2023/03/19 08:55:57;;;;;;;1.20;0.93;;;;;;;14.34;87.95;101244.34;5048666;28;20029;-62
2023/03/19 08:58:23;;;;;;;1.83;1.00;;;;;;;14.50;86.69;101235.31;5046590;28;20025;-66
2023/03/19 09:00:49;;;;;;;1.13;0.98;;;;;;;14.44;86.34;101244.53;5045614;28;20025;-65
2023/03/19 09:03:16;;;;;;;1.52;1.05;;;;;;;14.35;86.41;101248.81;5048647;28;20040;-61
2023/03/19 09:05:41;;;;;;;1.23;1.10;;;;;;;14.64;85.68;101247.72;5048399;28;20032;-66
2023/03/19 09:08:06;;;;;;;1.35;1.05;;;;;;;14.63;84.57;101242.44;5043540;28;20025;-66
2023/03/19 09:10:32;;;;;;;1.00;0.90;;;;;;;14.52;84.13;101253.31;5039783;28;20395;-65
2023/03/19 09:12:57;;;;;;;1.08;0.98;;;;;;;14.62;82.48;101255.44;5048214;28;20048;-65
2023/03/19 09:15:23;;;;;;;1.67;1.20;;;;;;;14.73;83.76;101262.81;5046763;28;20519;-65
2023/03/19 09:17:48;;;;;;;1.05;0.90;;;;;;;15.49;81.27;101263.28;5039087;28;20384;-64
2023/03/19 09:20:14;;;;;;;1.23;0.95;;;;;;;15.76;76.83;101265.34;5048914;28;20028;-66
2023/03/19 09:22:39;;;;;;;0.82;0.80;;;;;;;15.41;77.41;101265.63;5047399;28;20032;-67
2023/03/19 09:25:05;;;;;;;1.48;1.00;;;;;;;14.71;79.84;101272.47;5047193;28;20112;-60
2023/03/19 09:27:31;;;;;;;1.63;1.00;;;;;;;14.15;83.79;101283.22;5045716;28;20037;-66
2023/03/19 09:29:56;;;;;;;1.42;0.90;;;;;;;13.76;85.85;101277.38;5049136;28;20087;-66
2023/03/19 09:32:22;;;;;;;1.80;1.13;;;;;;;13.44;86.07;101279.66;5043981;28;20463;-64
2023/03/19 09:34:47;;;;;;;1.58;1.02;;;;;;;13.44;86.25;101282.44;5047596;28;20159;-65
2023/03/19 09:37:12;;;;;;;2.15;1.20;;;;;;;13.75;86.19;101288.66;5047685;28;20021;-62
2023/03/19 09:39:38;;;;;;;1.77;1.10;;;;;;;16.02;78.46;101281.25;5038387;28;20135;-62
2023/03/19 09:42:09;;;;;;;2.10;1.10;;;;;;;17.54;69.43;101285.94;5047243;28;20033;-64
2023/03/19 09:44:38;;;;;;;1.02;0.80;;;;;;;19.40;63.13;101280.50;5047777;28;20044;-67
2023/03/19 09:47:24;;;;;;;1.20;0.80;;;;;;;20.85;59.79;101280.63;5048133;28;20029;-67
2023/03/19 09:49:53;;;;;;;1.00;0.90;;;;;;;21.31;53.46;101299.03;5047109;28;20029;-67
2023/03/19 09:52:31;;;;;;;1.00;0.80;;;;;;;22.21;52.33;101296.50;5046957;28;20124;-63
2023/03/19 09:55:02;;;;;;;1.10;0.85;;;;;;;23.56;48.22;101295.09;5040927;28;20617;-67
2023/03/19 09:57:28;;;;;;;1.08;0.80;;;;;;;24.01;46.47;101298.22;5045794;28;20167;-65
2023/03/19 09:59:55;;;;;;;1.15;0.80;;;;;;;24.70;43.77;101289.81;5038724;28;20037;-68
2023/03/19 10:02:39;;;;;;;1.17;0.90;;;;;;;25.16;44.33;101298.00;5046894;28;20028;-66
2023/03/19 10:05:17;;;;;;;1.00;0.80;;;;;;;25.21;43.15;101297.91;5039152;28;20039;-67
2023/03/19 10:08:09;;;;;;;1.40;0.82;;;;;;;26.01;41.99;101296.13;5040499;28;20390;-67
2023/03/19 10:10:48;;;;;;;1.00;0.80;;;;;;;26.61;40.15;101291.84;5034459;28;20044;-66
2023/03/19 10:13:33;;;;;;;1.13;0.80;;;;;;;25.86;40.36;101304.97;5035556;28;20392;-63
2023/03/19 10:16:00;;;;;;;0.85;0.80;;;;;;;24.97;39.93;101297.31;5044894;28;20056;-64
2023/03/19 10:18:34;;;;;;;1.33;0.80;;;;;;;25.19;41.16;101294.56;5047725;28;20070;-64
2023/03/19 10:21:10;;;;;;;1.52;0.80;;;;;;;25.58;39.59;101305.09;5045933;28;20044;-64
2023/03/19 10:23:49;;;;;;;1.38;0.85;;;;;;;24.59;41.99;101300.44;5046292;28;20078;-63
2023/03/19 10:26:18;;;;;;;1.15;0.88;;;;;;;22.80;42.72;101297.09;5046089;28;20021;-63
2023/03/19 10:29:03;;;;;;;1.25;0.90;;;;;;;21.49;47.19;101304.75;5038704;28;20060;-63
2023/03/19 10:31:33;;;;;;;1.20;0.80;;;;;;;20.42;49.51;101304.53;5039734;28;20467;-63
2023/03/19 10:34:17;;;;;;;1.50;0.80;;;;;;;19.94;52.77;101304.16;5035375;28;20033;-63
2023/03/19 10:36:42;;;;;;;1.45;0.90;;;;;;;19.81;52.56;101307.50;5047517;28;20047;-63
2023/03/19 10:39:07;;;;;;;1.23;0.90;;;;;;;18.97;56.18;101309.72;5038388;28;20037;-63
2023/03/19 10:41:44;;;;;;;1.58;0.90;;;;;;;17.99;58.13;101315.13;5045943;28;20025;-63
2023/03/19 10:44:23;;;;;;;1.60;0.90;;;;;;;17.38;62.29;101321.03;5034025;28;20028;-63
2023/03/19 10:46:49;;;;;;;1.00;0.90;;;;;;;17.14;62.38;101322.50;5046797;28;20533;-63
2023/03/19 10:49:15;;;;;;;1.13;0.70;;;;;;;17.20;64.15;101324.22;5046527;28;20029;-61
2023/03/19 10:51:47;;;;;;;1.23;1.00;;;;;;;17.20;64.02;101327.00;5046951;28;20113;-61
2023/03/19 10:54:25;;;;;;;1.00;0.80;;;;;;;17.76;62.22;101320.00;5046197;28;20040;-61
2023/03/19 10:56:54;;;;;;;1.23;0.90;;;;;;;19.20;58.64;101311.13;5046184;28;20021;-61
2023/03/19 10:59:32;;;;;;;0.75;0.75;;;;;;;19.59;55.52;101325.38;5028452;28;20403;-61
2023/03/19 11:02:01;;;;;;;0.93;0.70;;;;;;;19.81;53.88;101325.06;5029718;28;20090;-61
2023/03/19 11:04:28;;;;;;;1.52;1.13;;;;;;;20.98;49.81;101323.81;5037469;28;20388;-61
2023/03/19 11:07:00;;;;;;;0.88;0.80;;;;;;;20.98;49.76;101321.00;5041262;28;20471;-61
2023/03/19 11:09:35;;;;;;;1.20;0.85;;;;;;;19.85;54.28;101322.56;5030045;28;20030;-61
2023/03/19 11:12:23;;;;;;;1.25;0.90;;;;;;;18.86;58.21;101328.34;5044406;28;20021;-61
2023/03/19 11:14:55;;;;;;;0.95;0.80;;;;;;;17.80;59.89;101342.53;5038349;28;20029;-61
2023/03/19 11:17:40;;;;;;;1.63;0.98;;;;;;;17.24;63.93;101336.50;5042716;28;20033;-61
2023/03/19 11:20:22;;;;;;;1.08;0.90;;;;;;;18.03;64.59;101332.94;5034531;28;20071;-62
2023/03/19 11:22:48;;;;;;;1.23;0.80;;;;;;;19.45;59.67;101327.03;5046710;28;20048;-62
2023/03/19 11:25:25;;;;;;;1.38;0.90;;;;;;;19.49;58.99;101328.13;5044892;28;20601;-61